sensor_id;sensor_type;location;lat;lon;timestamp;pressure;altitude;pressure_sealevel;temperature;humidity
73974;BME280;62336;-26.094;27.994;2023-05-10T00:00:30;85153.36;;;24.96;21.48
73974;BME280;62336;-26.094;27.994;2023-05-10T00:02:56;85152.91;;;24.56;21.41
73974;BME280;62336;-26.094;27.994;2023-05-10T00:05:21;85149.66;;;24.48;21.47
73974;BME280;62336;-26.094;27.994;2023-05-10T00:07:47;85145.90;;;24.80;21.25
73974;BME280;62336;-26.094;27.994;2023-05-10T00:10:12;85144.97;;;24.46;21.25
73974;BME280;62336;-26.094;27.994;2023-05-10T00:12:37;85146.91;;;24.28;21.34
73974;BME280;62336;-26.094;27.994;2023-05-10T00:15:04;85141.32;;;23.57;21.64
73974;BME280;62336;-26.094;27.994;2023-05-10T00:17:27;85140.89;;;24.41;21.68
73974;BME280;62336;-26.094;27.994;2023-05-10T00:19:53;85145.82;;;24.11;21.70
73974;BME280;62336;-26.094;27.994;2023-05-10T00:22:20;85144.04;;;24.56;21.68
73974;BME280;62336;-26.094;27.994;2023-05-10T00:24:45;85142.20;;;24.61;21.67
73974;BME280;62336;-26.094;27.994;2023-05-10T00:27:10;85141.25;;;24.09;21.59
73974;BME280;62336;-26.094;27.994;2023-05-10T00:29:36;85137.03;;;24.34;21.86
73974;BME280;62336;-26.094;27.994;2023-05-10T00:32:01;85136.76;;;24.36;21.94
73974;BME280;62336;-26.094;27.994;2023-05-10T00:34:27;85131.84;;;23.54;22.10
73974;BME280;62336;-26.094;27.994;2023-05-10T00:36:53;85129.66;;;24.36;21.88
73974;BME280;62336;-26.094;27.994;2023-05-10T00:39:18;85127.07;;;24.22;21.92
73974;BME280;62336;-26.094;27.994;2023-05-10T00:41:43;85126.27;;;24.35;22.14
73974;BME280;62336;-26.094;27.994;2023-05-10T00:44:09;85125.28;;;23.94;22.07
73974;BME280;62336;-26.094;27.994;2023-05-10T00:46:34;85124.98;;;23.59;22.22
73974;BME280;62336;-26.094;27.994;2023-05-10T00:49:00;85122.94;;;23.84;22.40
73974;BME280;62336;-26.094;27.994;2023-05-10T00:51:25;85123.15;;;23.88;22.12
73974;BME280;62336;-26.094;27.994;2023-05-10T00:53:50;85121.34;;;23.25;22.32
73974;BME280;62336;-26.094;27.994;2023-05-10T00:56:15;85122.41;;;23.84;22.26
73974;BME280;62336;-26.094;27.994;2023-05-10T00:58:41;85119.54;;;23.62;22.37
73974;BME280;62336;-26.094;27.994;2023-05-10T01:01:12;85116.92;;;23.96;22.30
73974;BME280;62336;-26.094;27.994;2023-05-10T01:03:32;85115.77;;;23.63;22.32
73974;BME280;62336;-26.094;27.994;2023-05-10T01:05:57;85117.93;;;23.94;22.45
73974;BME280;62336;-26.094;27.994;2023-05-10T01:08:22;85116.72;;;23.35;22.48
73974;BME280;62336;-26.094;27.994;2023-05-10T01:10:47;85118.55;;;23.98;22.45
73974;BME280;62336;-26.094;27.994;2023-05-10T01:13:13;85120.19;;;24.27;22.28
73974;BME280;62336;-26.094;27.994;2023-05-10T01:15:39;85119.67;;;24.51;22.39
73974;BME280;62336;-26.094;27.994;2023-05-10T01:18:04;85115.31;;;24.36;22.15
73974;BME280;62336;-26.094;27.994;2023-05-10T01:20:36;85120.48;;;24.39;22.07
73974;BME280;62336;-26.094;27.994;2023-05-10T01:23:12;85122.02;;;24.06;22.15
73974;BME280;62336;-26.094;27.994;2023-05-10T01:25:32;85118.03;;;24.45;22.14
73974;BME280;62336;-26.094;27.994;2023-05-10T01:30:24;85115.87;;;24.37;22.17
73974;BME280;62336;-26.094;27.994;2023-05-10T01:32:39;85118.24;;;24.51;22.12
73974;BME280;62336;-26.094;27.994;2023-05-10T01:35:05;85117.14;;;23.99;22.31
73974;BME280;62336;-26.094;27.994;2023-05-10T01:37:39;85116.30;;;24.12;22.35
73974;BME280;62336;-26.094;27.994;2023-05-10T01:39:58;85114.98;;;23.84;22.22
73974;BME280;62336;-26.094;27.994;2023-05-10T01:42:21;85113.64;;;23.72;22.66
73974;BME280;62336;-26.094;27.994;2023-05-10T01:44:48;85113.99;;;23.62;22.70
73974;BME280;62336;-26.094;27.994;2023-05-10T01:47:12;85113.51;;;23.88;22.73
73974;BME280;62336;-26.094;27.994;2023-05-10T01:49:39;85114.15;;;23.91;22.68
73974;BME280;62336;-26.094;27.994;2023-05-10T01:52:06;85115.46;;;24.43;22.39
73974;BME280;62336;-26.094;27.994;2023-05-10T01:54:25;85113.79;;;24.00;22.67
73974;BME280;62336;-26.094;27.994;2023-05-10T01:56:55;85115.31;;;24.05;22.54
73974;BME280;62336;-26.094;27.994;2023-05-10T01:59:18;85116.79;;;24.35;22.32
73974;BME280;62336;-26.094;27.994;2023-05-10T02:01:41;85118.42;;;24.21;22.42
73974;BME280;62336;-26.094;27.994;2023-05-10T02:04:06;85116.58;;;23.93;22.75
73974;BME280;62336;-26.094;27.994;2023-05-10T02:06:31;85113.82;;;23.76;22.63
73974;BME280;62336;-26.094;27.994;2023-05-10T02:08:57;85115.11;;;23.77;22.63
73974;BME280;62336;-26.094;27.994;2023-05-10T02:11:23;85113.10;;;23.95;22.65
73974;BME280;62336;-26.094;27.994;2023-05-10T02:13:48;85109.67;;;23.90;22.98
73974;BME280;62336;-26.094;27.994;2023-05-10T02:16:13;85109.39;;;24.06;22.76
73974;BME280;62336;-26.094;27.994;2023-05-10T02:18:40;85113.03;;;23.95;22.59
73974;BME280;62336;-26.094;27.994;2023-05-10T02:21:04;85114.56;;;24.10;22.66
73974;BME280;62336;-26.094;27.994;2023-05-10T02:23:29;85113.78;;;24.04;22.66
73974;BME280;62336;-26.094;27.994;2023-05-10T02:25:56;85113.48;;;24.08;22.76
73974;BME280;62336;-26.094;27.994;2023-05-10T02:28:21;85112.10;;;23.92;22.66
73974;BME280;62336;-26.094;27.994;2023-05-10T02:30:47;85111.96;;;24.05;22.47
73974;BME280;62336;-26.094;27.994;2023-05-10T02:33:12;85109.52;;;24.04;22.75
73974;BME280;62336;-26.094;27.994;2023-05-10T02:35:37;85109.15;;;23.86;22.85
73974;BME280;62336;-26.094;27.994;2023-05-10T02:38:02;85110.12;;;23.82;23.11
73974;BME280;62336;-26.094;27.994;2023-05-10T02:40:28;85111.17;;;23.28;22.72
73974;BME280;62336;-26.094;27.994;2023-05-10T02:42:56;85113.43;;;23.84;22.82
73974;BME280;62336;-26.094;27.994;2023-05-10T02:45:22;85112.69;;;23.61;22.82
73974;BME280;62336;-26.094;27.994;2023-05-10T02:47:43;85111.23;;;23.88;22.96
73974;BME280;62336;-26.094;27.994;2023-05-10T02:50:09;85107.85;;;23.84;22.92
73974;BME280;62336;-26.094;27.994;2023-05-10T02:52:40;85106.25;;;23.67;22.98
73974;BME280;62336;-26.094;27.994;2023-05-10T02:55:03;85107.91;;;23.54;22.91
73974;BME280;62336;-26.094;27.994;2023-05-10T02:57:28;85107.36;;;23.97;22.58
73974;BME280;62336;-26.094;27.994;2023-05-10T02:59:51;85109.67;;;23.88;22.80
73974;BME280;62336;-26.094;27.994;2023-05-10T03:02:18;85107.48;;;23.98;22.86
73974;BME280;62336;-26.094;27.994;2023-05-10T03:04:42;85109.12;;;24.16;22.47
73974;BME280;62336;-26.094;27.994;2023-05-10T03:07:08;85109.71;;;24.15;22.39
73974;BME280;62336;-26.094;27.994;2023-05-10T03:09:34;85113.05;;;23.96;22.55
73974;BME280;62336;-26.094;27.994;2023-05-10T03:12:04;85116.92;;;24.03;22.38
73974;BME280;62336;-26.094;27.994;2023-05-10T03:14:37;85119.29;;;24.23;22.53
73974;BME280;62336;-26.094;27.994;2023-05-10T03:16:57;85118.93;;;23.95;22.66
73974;BME280;62336;-26.094;27.994;2023-05-10T03:19:22;85120.71;;;23.67;22.82
73974;BME280;62336;-26.094;27.994;2023-05-10T03:21:44;85122.68;;;24.06;22.52
73974;BME280;62336;-26.094;27.994;2023-05-10T03:24:08;85123.57;;;23.84;22.66
73974;BME280;62336;-26.094;27.994;2023-05-10T03:26:31;85121.86;;;23.57;22.84
73974;BME280;62336;-26.094;27.994;2023-05-10T03:28:58;85119.51;;;23.61;22.87
73974;BME280;62336;-26.094;27.994;2023-05-10T03:31:22;85120.34;;;23.71;22.64
73974;BME280;62336;-26.094;27.994;2023-05-10T03:33:48;85123.19;;;23.95;22.77
73974;BME280;62336;-26.094;27.994;2023-05-10T03:36:13;85123.63;;;23.81;22.81
73974;BME280;62336;-26.094;27.994;2023-05-10T03:38:38;85127.77;;;23.64;22.95
73974;BME280;62336;-26.094;27.994;2023-05-10T03:41:03;85128.17;;;23.52;22.87
73974;BME280;62336;-26.094;27.994;2023-05-10T03:43:29;85129.47;;;23.26;23.04
73974;BME280;62336;-26.094;27.994;2023-05-10T03:45:56;85133.82;;;23.79;23.23
73974;BME280;62336;-26.094;27.994;2023-05-10T03:48:19;85134.12;;;23.86;22.88
73974;BME280;62336;-26.094;27.994;2023-05-10T03:50:44;85134.90;;;23.66;23.16
73974;BME280;62336;-26.094;27.994;2023-05-10T03:53:10;85134.99;;;23.35;22.90
73974;BME280;62336;-26.094;27.994;2023-05-10T03:55:34;85137.03;;;23.38;23.03
73974;BME280;62336;-26.094;27.994;2023-05-10T03:58:00;85136.60;;;23.63;22.84
73974;BME280;62336;-26.094;27.994;2023-05-10T04:00:25;85139.12;;;23.50;22.91
73974;BME280;62336;-26.094;27.994;2023-05-10T04:02:50;85141.07;;;23.27;23.09
73974;BME280;62336;-26.094;27.994;2023-05-10T04:05:16;85142.11;;;23.44;22.93
73974;BME280;62336;-26.094;27.994;2023-05-10T04:07:41;85147.12;;;22.84;23.30
73974;BME280;62336;-26.094;27.994;2023-05-10T04:10:08;85149.46;;;22.82;22.94
73974;BME280;62336;-26.094;27.994;2023-05-10T04:12:32;85149.86;;;23.12;23.23
73974;BME280;62336;-26.094;27.994;2023-05-10T04:14:57;85149.04;;;23.19;23.13
73974;BME280;62336;-26.094;27.994;2023-05-10T04:17:23;85147.30;;;22.88;23.04
73974;BME280;62336;-26.094;27.994;2023-05-10T04:19:47;85149.56;;;23.40;23.37
73974;BME280;62336;-26.094;27.994;2023-05-10T04:22:13;85151.75;;;23.27;23.06
73974;BME280;62336;-26.094;27.994;2023-05-10T04:24:38;85154.89;;;22.76;23.20
73974;BME280;62336;-26.094;27.994;2023-05-10T04:27:04;85156.28;;;22.77;23.65
73974;BME280;62336;-26.094;27.994;2023-05-10T04:29:29;85158.25;;;22.61;23.46
73974;BME280;62336;-26.094;27.994;2023-05-10T04:31:55;85157.46;;;23.04;23.73
73974;BME280;62336;-26.094;27.994;2023-05-10T04:34:21;85158.38;;;23.09;23.61
73974;BME280;62336;-26.094;27.994;2023-05-10T04:36:46;85160.88;;;23.23;23.50
73974;BME280;62336;-26.094;27.994;2023-05-10T04:39:10;85162.39;;;23.19;23.50
73974;BME280;62336;-26.094;27.994;2023-05-10T04:41:38;85163.60;;;22.91;23.43
73974;BME280;62336;-26.094;27.994;2023-05-10T04:44:01;85162.56;;;23.18;23.51
73974;BME280;62336;-26.094;27.994;2023-05-10T04:46:27;85161.09;;;23.20;23.50
73974;BME280;62336;-26.094;27.994;2023-05-10T04:48:52;85163.77;;;23.39;23.34
73974;BME280;62336;-26.094;27.994;2023-05-10T04:51:18;85168.09;;;23.58;23.12
73974;BME280;62336;-26.094;27.994;2023-05-10T04:53:43;85171.19;;;23.47;23.24
73974;BME280;62336;-26.094;27.994;2023-05-10T04:56:09;85173.23;;;23.07;23.46
73974;BME280;62336;-26.094;27.994;2023-05-10T04:58:34;85176.76;;;23.38;23.60
73974;BME280;62336;-26.094;27.994;2023-05-10T05:01:05;85176.64;;;23.47;23.37
73974;BME280;62336;-26.094;27.994;2023-05-10T05:03:25;85177.64;;;23.26;23.56
73974;BME280;62336;-26.094;27.994;2023-05-10T05:05:51;85173.80;;;23.55;23.44
73974;BME280;62336;-26.094;27.994;2023-05-10T05:08:16;85172.42;;;22.98;23.65
73974;BME280;62336;-26.094;27.994;2023-05-10T05:10:41;85170.49;;;23.71;23.54
73974;BME280;62336;-26.094;27.994;2023-05-10T05:13:07;85170.90;;;23.42;23.43
73974;BME280;62336;-26.094;27.994;2023-05-10T05:15:33;85172.98;;;23.56;23.59
73974;BME280;62336;-26.094;27.994;2023-05-10T05:17:58;85173.23;;;23.46;23.61
73974;BME280;62336;-26.094;27.994;2023-05-10T05:20:24;85174.29;;;23.46;23.46
73974;BME280;62336;-26.094;27.994;2023-05-10T05:22:49;85176.56;;;23.90;23.03
73974;BME280;62336;-26.094;27.994;2023-05-10T05:25:14;85183.32;;;23.31;23.15
73974;BME280;62336;-26.094;27.994;2023-05-10T05:27:40;85184.53;;;23.25;23.69
73974;BME280;62336;-26.094;27.994;2023-05-10T05:30:07;85186.88;;;23.23;23.53
73974;BME280;62336;-26.094;27.994;2023-05-10T05:32:31;85188.43;;;23.39;23.51
73974;BME280;62336;-26.094;27.994;2023-05-10T05:34:57;85193.21;;;23.67;23.15
73974;BME280;62336;-26.094;27.994;2023-05-10T05:37:21;85191.82;;;23.82;23.01
73974;BME280;62336;-26.094;27.994;2023-05-10T05:39:47;85194.04;;;24.00;22.85
73974;BME280;62336;-26.094;27.994;2023-05-10T05:42:12;85195.77;;;23.14;23.42
73974;BME280;62336;-26.094;27.994;2023-05-10T05:44:37;85202.38;;;24.18;23.31
73974;BME280;62336;-26.094;27.994;2023-05-10T05:47:02;85202.24;;;23.42;23.36
73974;BME280;62336;-26.094;27.994;2023-05-10T05:49:28;85202.86;;;23.81;23.02
73974;BME280;62336;-26.094;27.994;2023-05-10T05:51:54;85201.82;;;24.00;22.87
73974;BME280;62336;-26.094;27.994;2023-05-10T05:54:19;85201.69;;;24.09;22.99
73974;BME280;62336;-26.094;27.994;2023-05-10T05:56:44;85201.89;;;24.40;22.92
73974;BME280;62336;-26.094;27.994;2023-05-10T05:59:10;85203.52;;;23.85;23.17
73974;BME280;62336;-26.094;27.994;2023-05-10T06:01:35;85204.17;;;24.66;22.79
73974;BME280;62336;-26.094;27.994;2023-05-10T06:04:00;85209.47;;;25.00;22.46
73974;BME280;62336;-26.094;27.994;2023-05-10T06:06:26;85210.11;;;25.11;22.68
73974;BME280;62336;-26.094;27.994;2023-05-10T06:08:52;85211.80;;;24.91;23.07
73974;BME280;62336;-26.094;27.994;2023-05-10T06:11:17;85211.77;;;25.00;22.64
73974;BME280;62336;-26.094;27.994;2023-05-10T06:13:42;85214.09;;;25.68;22.27
73974;BME280;62336;-26.094;27.994;2023-05-10T06:16:07;85219.70;;;25.72;22.28
73974;BME280;62336;-26.094;27.994;2023-05-10T06:18:33;85218.47;;;26.36;21.58
73974;BME280;62336;-26.094;27.994;2023-05-10T06:20:58;85220.07;;;26.57;21.49
73974;BME280;62336;-26.094;27.994;2023-05-10T06:23:23;85222.01;;;26.54;21.52
73974;BME280;62336;-26.094;27.994;2023-05-10T06:25:49;85222.56;;;26.65;21.30
73974;BME280;62336;-26.094;27.994;2023-05-10T06:28:14;85225.39;;;26.41;21.74
73974;BME280;62336;-26.094;27.994;2023-05-10T06:30:40;85226.37;;;26.40;21.59
73974;BME280;62336;-26.094;27.994;2023-05-10T06:33:05;85226.41;;;27.05;21.29
73974;BME280;62336;-26.094;27.994;2023-05-10T06:35:31;85224.54;;;26.87;21.66
73974;BME280;62336;-26.094;27.994;2023-05-10T06:37:57;85227.83;;;26.67;21.48
73974;BME280;62336;-26.094;27.994;2023-05-10T06:40:22;85226.70;;;27.13;21.46
73974;BME280;62336;-26.094;27.994;2023-05-10T06:42:48;85227.80;;;27.57;21.10
73974;BME280;62336;-26.094;27.994;2023-05-10T06:45:13;85228.01;;;27.41;21.01
73974;BME280;62336;-26.094;27.994;2023-05-10T06:47:38;85225.35;;;27.75;20.89
73974;BME280;62336;-26.094;27.994;2023-05-10T06:50:04;85226.17;;;27.59;21.13
73974;BME280;62336;-26.094;27.994;2023-05-10T06:52:28;85228.66;;;28.04;20.97
73974;BME280;62336;-26.094;27.994;2023-05-10T06:54:54;85230.17;;;28.22;20.83
73974;BME280;62336;-26.094;27.994;2023-05-10T06:57:19;85230.90;;;28.19;20.91
73974;BME280;62336;-26.094;27.994;2023-05-10T06:59:44;85227.59;;;28.22;20.13
73974;BME280;62336;-26.094;27.994;2023-05-10T07:02:10;85228.95;;;28.26;20.06
73974;BME280;62336;-26.094;27.994;2023-05-10T07:04:35;85226.63;;;28.75;19.84
73974;BME280;62336;-26.094;27.994;2023-05-10T07:07:01;85229.46;;;28.29;19.87
73974;BME280;62336;-26.094;27.994;2023-05-10T07:09:27;85230.82;;;28.73;19.73
73974;BME280;62336;-26.094;27.994;2023-05-10T07:11:52;85232.06;;;29.01;19.51
73974;BME280;62336;-26.094;27.994;2023-05-10T07:14:18;85233.01;;;29.23;19.36
73974;BME280;62336;-26.094;27.994;2023-05-10T07:16:43;85234.15;;;29.19;19.00
73974;BME280;62336;-26.094;27.994;2023-05-10T07:19:09;85231.30;;;29.19;18.21
73974;BME280;62336;-26.094;27.994;2023-05-10T07:21:34;85231.35;;;28.89;18.63
73974;BME280;62336;-26.094;27.994;2023-05-10T07:23:59;85232.48;;;28.87;18.80
73974;BME280;62336;-26.094;27.994;2023-05-10T07:26:25;85232.59;;;29.56;18.27
73974;BME280;62336;-26.094;27.994;2023-05-10T07:28:50;85229.88;;;29.85;18.20
73974;BME280;62336;-26.094;27.994;2023-05-10T07:31:16;85230.50;;;29.71;17.74
73974;BME280;62336;-26.094;27.994;2023-05-10T07:33:42;85226.28;;;29.66;17.47
73974;BME280;62336;-26.094;27.994;2023-05-10T07:36:07;85225.80;;;29.83;17.50
73974;BME280;62336;-26.094;27.994;2023-05-10T07:38:32;85225.03;;;30.22;17.81
73974;BME280;62336;-26.094;27.994;2023-05-10T07:40:58;85224.64;;;30.22;17.84
73974;BME280;62336;-26.094;27.994;2023-05-10T07:43:23;85223.16;;;30.04;17.61
73974;BME280;62336;-26.094;27.994;2023-05-10T07:45:49;85221.05;;;30.23;17.99
73974;BME280;62336;-26.094;27.994;2023-05-10T07:48:15;85219.13;;;30.60;17.76
73974;BME280;62336;-26.094;27.994;2023-05-10T07:50:40;85215.57;;;30.73;17.35
73974;BME280;62336;-26.094;27.994;2023-05-10T07:53:05;85215.92;;;30.40;17.65
73974;BME280;62336;-26.094;27.994;2023-05-10T07:55:31;85215.10;;;30.25;17.46
73974;BME280;62336;-26.094;27.994;2023-05-10T07:57:57;85212.45;;;30.43;17.21
73974;BME280;62336;-26.094;27.994;2023-05-10T08:00:22;85211.21;;;30.98;17.24
73974;BME280;62336;-26.094;27.994;2023-05-10T08:02:47;85206.55;;;30.95;17.11
73974;BME280;62336;-26.094;27.994;2023-05-10T08:05:12;85203.72;;;31.02;17.28
73974;BME280;62336;-26.094;27.994;2023-05-10T08:07:39;85202.75;;;30.55;16.82
73974;BME280;62336;-26.094;27.994;2023-05-10T08:10:04;85201.39;;;30.31;16.71
73974;BME280;62336;-26.094;27.994;2023-05-10T08:12:29;85196.95;;;30.76;16.52
73974;BME280;62336;-26.094;27.994;2023-05-10T08:14:55;85200.04;;;30.65;17.29
73974;BME280;62336;-26.094;27.994;2023-05-10T08:17:20;85200.84;;;31.03;16.97
73974;BME280;62336;-26.094;27.994;2023-05-10T08:19:46;85200.62;;;31.68;16.93
73974;BME280;62336;-26.094;27.994;2023-05-10T08:22:11;85202.12;;;31.09;16.79
73974;BME280;62336;-26.094;27.994;2023-05-10T08:24:35;85201.48;;;31.67;16.67
73974;BME280;62336;-26.094;27.994;2023-05-10T08:27:01;85201.23;;;31.39;16.10
73974;BME280;62336;-26.094;27.994;2023-05-10T08:29:27;85196.64;;;31.43;15.65
73974;BME280;62336;-26.094;27.994;2023-05-10T08:31:52;85197.01;;;31.58;16.07
73974;BME280;62336;-26.094;27.994;2023-05-10T08:34:18;85190.69;;;31.82;16.00
73974;BME280;62336;-26.094;27.994;2023-05-10T08:36:44;85190.48;;;32.11;15.49
73974;BME280;62336;-26.094;27.994;2023-05-10T08:39:09;85187.80;;;31.87;15.53
73974;BME280;62336;-26.094;27.994;2023-05-10T08:41:36;85187.83;;;32.00;15.60
73974;BME280;62336;-26.094;27.994;2023-05-10T08:44:00;85187.14;;;31.71;15.66
73974;BME280;62336;-26.094;27.994;2023-05-10T08:46:27;85177.95;;;32.09;14.90
73974;BME280;62336;-26.094;27.994;2023-05-10T08:48:51;85182.19;;;32.08;15.22
73974;BME280;62336;-26.094;27.994;2023-05-10T08:51:18;85179.07;;;31.72;14.48
73974;BME280;62336;-26.094;27.994;2023-05-10T08:53:42;85176.05;;;32.06;13.86
73974;BME280;62336;-26.094;27.994;2023-05-10T08:56:08;85176.28;;;32.38;13.88
73974;BME280;62336;-26.094;27.994;2023-05-10T08:58:34;85177.31;;;32.82;14.71
73974;BME280;62336;-26.094;27.994;2023-05-10T09:01:01;85178.14;;;32.62;13.63
73974;BME280;62336;-26.094;27.994;2023-05-10T09:03:26;85174.65;;;33.04;12.88
73974;BME280;62336;-26.094;27.994;2023-05-10T09:05:51;85173.72;;;32.72;12.93
73974;BME280;62336;-26.094;27.994;2023-05-10T09:08:17;85172.72;;;32.92;12.07
73974;BME280;62336;-26.094;27.994;2023-05-10T09:10:43;85164.13;;;32.98;12.18
73974;BME280;62336;-26.094;27.994;2023-05-10T09:13:10;85162.36;;;33.14;12.24
73974;BME280;62336;-26.094;27.994;2023-05-10T09:15:34;85160.13;;;33.42;12.45
73974;BME280;62336;-26.094;27.994;2023-05-10T09:18:01;85156.80;;;33.45;12.52
73974;BME280;62336;-26.094;27.994;2023-05-10T09:20:26;85156.76;;;33.86;12.63
73974;BME280;62336;-26.094;27.994;2023-05-10T09:22:52;85155.23;;;34.27;12.21
73974;BME280;62336;-26.094;27.994;2023-05-10T09:25:17;85148.56;;;34.29;12.36
73974;BME280;62336;-26.094;27.994;2023-05-10T09:27:45;85148.66;;;33.99;12.73
73974;BME280;62336;-26.094;27.994;2023-05-10T09:30:09;85145.10;;;33.77;12.04
73974;BME280;62336;-26.094;27.994;2023-05-10T09:32:39;85143.63;;;33.70;11.98
73974;BME280;62336;-26.094;27.994;2023-05-10T09:35:07;85139.27;;;33.48;12.26
73974;BME280;62336;-26.094;27.994;2023-05-10T09:37:29;85135.51;;;33.62;12.25
73974;BME280;62336;-26.094;27.994;2023-05-10T09:39:55;85133.17;;;33.82;11.96
73974;BME280;62336;-26.094;27.994;2023-05-10T09:42:19;85128.70;;;33.87;12.61
73974;BME280;62336;-26.094;27.994;2023-05-10T09:44:40;85128.52;;;34.11;11.79
73974;BME280;62336;-26.094;27.994;2023-05-10T09:47:06;85126.20;;;34.02;12.21
73974;BME280;62336;-26.094;27.994;2023-05-10T09:49:31;85127.48;;;34.10;12.92
73974;BME280;62336;-26.094;27.994;2023-05-10T09:52:03;85130.22;;;33.76;12.73
73974;BME280;62336;-26.094;27.994;2023-05-10T09:54:22;85122.24;;;33.05;12.28
73974;BME280;62336;-26.094;27.994;2023-05-10T09:56:48;85120.39;;;32.91;12.72
73974;BME280;62336;-26.094;27.994;2023-05-10T09:59:13;85117.88;;;33.35;13.06
73974;BME280;62336;-26.094;27.994;2023-05-10T10:01:39;85113.09;;;33.34;13.34
73974;BME280;62336;-26.094;27.994;2023-05-10T10:04:06;85110.34;;;33.19;13.31
73974;BME280;62336;-26.094;27.994;2023-05-10T10:06:29;85108.58;;;33.58;13.56
73974;BME280;62336;-26.094;27.994;2023-05-10T10:08:55;85107.13;;;33.56;13.20
73974;BME280;62336;-26.094;27.994;2023-05-10T10:11:20;85102.35;;;33.27;13.40
73974;BME280;62336;-26.094;27.994;2023-05-10T10:13:46;85097.39;;;32.99;13.78
73974;BME280;62336;-26.094;27.994;2023-05-10T10:16:11;85093.08;;;33.06;13.67
73974;BME280;62336;-26.094;27.994;2023-05-10T10:18:37;85092.07;;;33.20;13.54
73974;BME280;62336;-26.094;27.994;2023-05-10T10:21:02;85091.49;;;33.54;13.87
73974;BME280;62336;-26.094;27.994;2023-05-10T10:23:27;85088.18;;;33.36;12.76
73974;BME280;62336;-26.094;27.994;2023-05-10T10:25:53;85084.22;;;32.93;12.18
73974;BME280;62336;-26.094;27.994;2023-05-10T10:28:24;85081.35;;;33.10;12.65
73974;BME280;62336;-26.094;27.994;2023-05-10T10:30:45;85082.10;;;33.26;12.88
73974;BME280;62336;-26.094;27.994;2023-05-10T10:33:29;85073.79;;;33.52;12.79
73974;BME280;62336;-26.094;27.994;2023-05-10T10:35:35;85071.81;;;33.33;12.52
73974;BME280;62336;-26.094;27.994;2023-05-10T10:38:01;85066.49;;;34.03;12.44
73974;BME280;62336;-26.094;27.994;2023-05-10T10:40:27;85065.01;;;33.48;12.64
73974;BME280;62336;-26.094;27.994;2023-05-10T10:42:52;85061.18;;;33.91;12.04
73974;BME280;62336;-26.094;27.994;2023-05-10T10:45:17;85059.54;;;34.27;12.66
73974;BME280;62336;-26.094;27.994;2023-05-10T10:47:43;85057.19;;;33.80;12.01
73974;BME280;62336;-26.094;27.994;2023-05-10T10:50:09;85051.83;;;33.94;11.71
73974;BME280;62336;-26.094;27.994;2023-05-10T10:52:35;85048.11;;;34.11;11.53
73974;BME280;62336;-26.094;27.994;2023-05-10T10:55:02;85038.63;;;33.41;11.43
73974;BME280;62336;-26.094;27.994;2023-05-10T10:57:27;85035.94;;;33.78;12.51
73974;BME280;62336;-26.094;27.994;2023-05-10T10:59:53;85031.56;;;33.48;11.48
73974;BME280;62336;-26.094;27.994;2023-05-10T11:04:43;85027.51;;;33.42;11.77
73974;BME280;62336;-26.094;27.994;2023-05-10T11:07:18;85021.98;;;33.77;11.64
73974;BME280;62336;-26.094;27.994;2023-05-10T11:09:39;85021.57;;;33.61;12.25
73974;BME280;62336;-26.094;27.994;2023-05-10T11:12:07;85020.83;;;34.16;11.66
73974;BME280;62336;-26.094;27.994;2023-05-10T11:14:27;85017.25;;;33.52;11.37
73974;BME280;62336;-26.094;27.994;2023-05-10T11:16:52;85014.17;;;33.35;12.28
73974;BME280;62336;-26.094;27.994;2023-05-10T11:19:19;85011.66;;;33.78;11.40
73974;BME280;62336;-26.094;27.994;2023-05-10T11:21:46;85006.68;;;33.89;11.32
73974;BME280;62336;-26.094;27.994;2023-05-10T11:24:14;85003.34;;;34.06;11.75
73974;BME280;62336;-26.094;27.994;2023-05-10T11:26:35;85003.68;;;33.98;12.33
73974;BME280;62336;-26.094;27.994;2023-05-10T11:29:00;84998.75;;;33.82;12.59
73974;BME280;62336;-26.094;27.994;2023-05-10T11:31:25;84996.52;;;33.98;12.59
73974;BME280;62336;-26.094;27.994;2023-05-10T11:33:52;84996.67;;;33.75;12.21
73974;BME280;62336;-26.094;27.994;2023-05-10T11:36:18;84991.59;;;34.25;12.46
73974;BME280;62336;-26.094;27.994;2023-05-10T11:38:42;84991.53;;;34.17;12.29
73974;BME280;62336;-26.094;27.994;2023-05-10T11:41:09;84990.63;;;34.30;12.43
73974;BME280;62336;-26.094;27.994;2023-05-10T11:43:33;84990.79;;;34.32;12.56
73974;BME280;62336;-26.094;27.994;2023-05-10T11:45:59;84990.63;;;34.26;12.57
73974;BME280;62336;-26.094;27.994;2023-05-10T11:48:24;84988.15;;;34.45;11.62
73974;BME280;62336;-26.094;27.994;2023-05-10T11:50:49;84983.25;;;34.32;11.62
73974;BME280;62336;-26.094;27.994;2023-05-10T11:53:15;84983.95;;;34.49;11.74
73974;BME280;62336;-26.094;27.994;2023-05-10T11:55:40;84982.65;;;34.58;12.56
73974;BME280;62336;-26.094;27.994;2023-05-10T11:58:06;84983.28;;;34.29;13.25
73974;BME280;62336;-26.094;27.994;2023-05-10T12:00:31;84979.66;;;34.49;13.15
73974;BME280;62336;-26.094;27.994;2023-05-10T12:02:56;84979.16;;;34.19;12.96
73974;BME280;62336;-26.094;27.994;2023-05-10T12:05:21;84973.73;;;34.51;13.05
73974;BME280;62336;-26.094;27.994;2023-05-10T12:07:47;84973.76;;;34.23;12.78
73974;BME280;62336;-26.094;27.994;2023-05-10T12:10:13;84974.00;;;34.24;12.87
73974;BME280;62336;-26.094;27.994;2023-05-10T12:12:38;84972.94;;;34.60;13.05
73974;BME280;62336;-26.094;27.994;2023-05-10T12:15:04;84971.18;;;34.58;13.32
73974;BME280;62336;-26.094;27.994;2023-05-10T12:17:29;84972.42;;;34.19;13.03
73974;BME280;62336;-26.094;27.994;2023-05-10T12:19:54;84970.63;;;34.30;13.09
73974;BME280;62336;-26.094;27.994;2023-05-10T12:22:21;84970.56;;;34.28;12.36
73974;BME280;62336;-26.094;27.994;2023-05-10T12:24:46;84965.91;;;33.46;11.75
73974;BME280;62336;-26.094;27.994;2023-05-10T12:27:10;84961.98;;;34.11;12.19
73974;BME280;62336;-26.094;27.994;2023-05-10T12:29:36;84960.39;;;34.34;11.96
73974;BME280;62336;-26.094;27.994;2023-05-10T12:32:01;84962.96;;;33.68;12.04
73974;BME280;62336;-26.094;27.994;2023-05-10T12:34:29;84963.28;;;34.33;12.27